Home   Weather   Germany   Wismar   Past weeks
Flag for Germany

Past Weather in Wismar, Mecklenburg-Western Pomerania, Germany — Yesterday and Last 2 Weeks

Currently: 82 °F. Sunny. (Weather station: Luebeck-Blankensee, Germany). See more current weather

Past Weather in Wismar — Graph

°F

Wismar Temperature Yesterday

Maximum temperature yesterday: 84 °F (at 12:20 pm)
Minimum temperature yesterday: 55 °F (at 4:50 am)
Average temperature yesterday: 72 °F

High & Low Weather Summary for the Past Weeks

 TemperatureHumidityPressure
High97 °F (Aug 4, 3:20 pm)100% (Jul 31, 9:20 pm)30.39 "Hg (Jul 31, 9:20 pm)
Low45 °F (Aug 7, 5:20 am)25% (Aug 4, 4:20 pm)29.80 "Hg (Aug 4, 4:50 pm)
Average68 °F69%30.12 "Hg
* Reported Jul 30 4:20 pm — Aug 14 4:20 pm, Wismar. Weather by CustomWeather, © 2022

Note: Actual official high and low records may vary slightly from our data, if they occured in-between our weather recording intervals... More about our weather records

Wismar Weather History for the Previous 24 Hours

Scroll right to see more
 ConditionsComfort  
Time TempWeatherWind HumidityBarometerVisibility
4:20 pm
Sun, Aug 14
82 °FSunny.12 mph51%29.80 "Hg10 mi
3:50 pm84 °FPassing clouds.13 mph48%29.83 "HgN/A
3:20 pm84 °FPassing clouds.12 mph51%29.83 "HgN/A
2:50 pm82 °FPassing clouds.10 mph55%29.83 "HgN/A
2:20 pm82 °FSunny.10 mph55%29.86 "Hg10 mi
1:50 pm82 °FPassing clouds.9 mph55%29.86 "HgN/A
1:20 pm82 °FPassing clouds.12 mph55%29.86 "HgN/A
12:50 pm82 °FPassing clouds.6 mph55%29.89 "HgN/A
12:20 pm81 °FPassing clouds.6 mph58%29.89 "HgN/A
11:50 am81 °FPassing clouds.7 mph54%29.89 "HgN/A
11:20 am77 °FPassing clouds.7 mph61%29.92 "HgN/A
10:50 am75 °FPassing clouds.6 mph65%29.92 "HgN/A
10:20 am77 °FPassing clouds.5 mph65%29.92 "HgN/A
9:50 am73 °FPassing clouds.5 mph69%29.92 "HgN/A
9:20 am70 °FPassing clouds.6 mph78%29.92 "HgN/A
8:50 am70 °FPassing clouds.5 mph78%29.92 "HgN/A
8:20 am68 °FPassing clouds.5 mph83%29.95 "HgN/A
7:50 am66 °FSunny.3 mph88%29.95 "Hg10 mi
7:20 am64 °FSunny.No wind88%29.95 "Hg10 mi
6:50 am63 °FSunny.No wind88%29.95 "Hg10 mi
6:20 am61 °FSunny.No wind88%29.95 "Hg10 mi
5:50 am61 °FClear.2 mph94%29.95 "HgN/A
5:20 am61 °FClear.1 mph88%29.95 "HgN/A
4:50 am63 °FPassing clouds.2 mph83%29.98 "HgN/A
4:20 am63 °FPassing clouds.2 mph88%29.98 "HgN/A
3:50 am64 °FPassing clouds.2 mph78%29.98 "HgN/A
3:20 am64 °FPassing clouds.3 mph83%29.98 "HgN/A
2:50 am63 °FPassing clouds.1 mph83%29.98 "HgN/A
1:20 am66 °FPassing clouds.No wind73%30.01 "HgN/A
12:50 am66 °FPassing clouds.3 mph73%30.01 "HgN/A
12:20 am66 °FPassing clouds.3 mph78%30.04 "HgN/A
11:50 pm
Sat, Aug 13
68 °FPassing clouds.2 mph78%30.04 "HgN/A
11:20 pm66 °FClear.1 mph83%30.04 "HgN/A
10:50 pm70 °FClear.1 mph73%30.04 "HgN/A
10:20 pm70 °FClear.3 mph73%30.04 "HgN/A
9:50 pm72 °FClear.6 mph69%30.04 "Hg10 mi
9:20 pm75 °FClear.7 mph57%30.04 "Hg10 mi
8:50 pm77 °FSunny.8 mph54%30.01 "Hg10 mi
8:20 pm79 °FSunny.10 mph48%30.01 "Hg10 mi
7:50 pm79 °FSunny.10 mph45%30.01 "Hg10 mi
7:20 pm81 °FSunny.13 mph45%30.04 "Hg10 mi
6:50 pm82 °FPassing clouds.10 mph42%30.04 "HgN/A
6:20 pm84 °FSunny.12 mph43%30.04 "Hg10 mi
5:50 pm82 °FPassing clouds.12 mph45%30.04 "HgN/A
5:20 pm82 °FSunny.12 mph45%30.07 "Hg10 mi
Weather by CustomWeather, © 2022

See weather overview